Time;durP1;ratioP1;P1;durP2;ratioP2;P2;SDS_P1;SDS_P2;PMS_P1;PMS_P2;Temp;Humidity;BMP_temperature;BMP_pressure;BME280_temperature;BME280_humidity;BME280_pressure;Samples;Min_cycle;Max_cycle;Signal;HPM_P1;HPM_P2
2022/02/16 00:02:11;;;;;;;65.35;24.65;;;;;;;1.03;93.77;97471.78;5044647;28;20080;-59
2022/02/16 00:04:38;;;;;;;61.67;24.38;;;;;;;0.68;94.06;97415.13;5043840;28;20537;-60
2022/02/16 00:07:05;;;;;;;45.00;17.85;;;;;;;1.17;94.33;97477.31;5044162;28;20045;-58
2022/02/16 00:09:32;;;;;;;33.58;15.32;;;;;;;1.11;95.44;97481.19;5042385;28;20049;-58
2022/02/16 00:12:02;;;;;;;31.80;14.65;;;;;;;0.65;94.53;97410.28;5043957;28;20060;-57
2022/02/16 00:14:29;;;;;;;40.05;14.65;;;;;;;1.22;95.35;97499.00;5043821;28;20459;-59
2022/02/16 00:16:56;;;;;;;32.33;14.05;;;;;;;1.19;95.26;97492.25;5043834;28;20052;-60
2022/02/16 00:19:23;;;;;;;35.72;13.68;;;;;;;0.98;95.42;97473.81;5043657;28;20063;-59
2022/02/16 00:21:50;;;;;;;48.20;21.30;;;;;;;1.11;95.39;97490.22;5042389;28;20049;-59
2022/02/16 00:24:18;;;;;;;44.03;17.65;;;;;;;0.92;96.84;97459.44;5042671;28;20059;-59
2022/02/16 00:26:45;;;;;;;35.72;15.30;;;;;;;1.11;97.85;97483.94;5042489;28;20057;-60
2022/02/16 00:29:12;;;;;;;34.92;14.38;;;;;;;1.00;97.05;97488.75;5043432;28;20418;-60
2022/02/16 00:31:39;;;;;;;34.22;15.93;;;;;;;1.09;96.64;97481.50;5043601;28;20599;-60
2022/02/16 00:34:06;;;;;;;41.08;18.00;;;;;;;1.10;96.78;97477.69;5043760;28;20059;-58
2022/02/16 00:36:34;;;;;;;48.35;19.58;;;;;;;1.13;97.04;97471.63;5043562;28;20514;-59
2022/02/16 00:39:01;;;;;;;47.50;18.38;;;;;;;0.84;96.34;97432.84;5043091;28;20057;-58
2022/02/16 00:41:28;;;;;;;33.58;17.02;;;;;;;1.21;96.35;97468.22;5043641;28;20056;-60
2022/02/16 00:43:55;;;;;;;36.78;15.07;;;;;;;0.69;96.67;97394.16;5043688;28;20056;-58
2022/02/16 00:46:24;;;;;;;31.58;14.25;;;;;;;1.10;97.23;97455.88;5043952;28;20140;-59
2022/02/16 00:48:50;;;;;;;40.38;14.57;;;;;;;0.96;97.92;97449.56;5043983;28;20059;-60
2022/02/16 00:51:17;;;;;;;46.70;15.82;;;;;;;1.14;98.98;97456.06;5042089;28;20056;-57
2022/02/16 00:53:44;;;;;;;37.42;13.98;;;;;;;1.22;98.49;97453.47;5043557;28;20053;-59
2022/02/16 00:56:10;;;;;;;33.53;14.70;;;;;;;1.16;98.37;97465.56;5043499;28;20136;-58
2022/02/16 00:58:37;;;;;;;33.97;13.88;;;;;;;1.17;97.43;97448.09;5043030;28;20068;-57
2022/02/16 01:01:04;;;;;;;38.65;15.30;;;;;;;1.01;98.32;97452.19;5042228;28;20056;-57
2022/02/16 01:03:31;;;;;;;32.20;13.63;;;;;;;0.91;98.95;97444.19;5043180;28;20579;-60
2022/02/16 01:05:57;;;;;;;35.08;14.75;;;;;;;0.90;98.17;97439.84;5043339;28;20053;-58
2022/02/16 01:08:24;;;;;;;33.50;15.43;;;;;;;0.77;98.21;97413.38;5041970;28;20063;-59
2022/02/16 01:10:51;;;;;;;33.58;13.85;;;;;;;1.04;97.70;97443.41;5058491;28;20049;-57
2022/02/16 01:13:17;;;;;;;34.15;13.07;;;;;;;0.61;96.84;97382.00;5043072;28;20053;-59
2022/02/16 01:15:44;;;;;;;39.67;15.43;;;;;;;0.55;97.39;97391.38;5043468;28;20080;-59
2022/02/16 01:18:11;;;;;;;36.45;14.95;;;;;;;0.98;96.26;97452.78;5043298;28;20053;-57
2022/02/16 01:20:38;;;;;;;35.08;15.05;;;;;;;0.64;95.69;97380.59;5043127;28;20049;-59
2022/02/16 01:23:05;;;;;;;35.03;13.35;;;;;;;0.69;95.65;97384.06;5041684;28;20045;-57
2022/02/16 01:25:31;;;;;;;35.05;14.02;;;;;;;0.36;95.49;97330.69;5043187;28;20322;-59
2022/02/16 01:27:58;;;;;;;32.20;14.23;;;;;;;0.88;96.40;97424.91;5043717;28;20056;-59
2022/02/16 01:30:24;;;;;;;34.53;14.15;;;;;;;0.86;97.17;97427.09;5043186;28;20057;-59
2022/02/16 01:32:51;;;;;;;32.35;11.93;;;;;;;0.76;97.38;97425.34;5041705;28;20053;-61
2022/02/16 01:35:18;;;;;;;31.23;11.75;;;;;;;0.21;96.76;97344.53;5042668;28;20530;-59
2022/02/16 01:37:45;;;;;;;36.03;13.95;;;;;;;0.79;96.65;97421.25;5043105;28;20075;-60
2022/02/16 01:40:13;;;;;;;38.28;14.65;;;;;;;0.68;97.37;97417.84;5042842;28;20065;-57
2022/02/16 01:42:40;;;;;;;35.25;14.68;;;;;;;-0.40;98.42;97235.81;5041351;28;20061;-57
2022/02/16 01:45:09;;;;;;;41.65;16.33;;;;;;;0.72;98.82;97416.16;5043174;28;20049;-57
2022/02/16 01:47:40;;;;;;;45.25;17.60;;;;;;;0.22;97.52;97351.63;5042044;28;20055;-60
2022/02/16 01:50:08;;;;;;;36.67;16.33;;;;;;;0.43;98.36;97385.56;5044285;28;20075;-59
2022/02/16 01:52:34;;;;;;;44.17;17.60;;;;;;;0.72;97.66;97393.53;5046665;28;20056;-59
2022/02/16 01:55:02;;;;;;;74.18;27.05;;;;;;;0.82;96.81;97405.06;5046141;28;20356;-57
2022/02/16 01:57:29;;;;;;;52.90;19.30;;;;;;;0.65;96.40;97406.75;5044880;28;20080;-57
2022/02/16 01:59:56;;;;;;;46.30;19.40;;;;;;;0.67;96.82;97408.06;5046076;28;20057;-56
2022/02/16 02:02:22;;;;;;;49.13;20.77;;;;;;;0.74;97.12;97402.25;5046521;28;20510;-59
2022/02/16 02:04:49;;;;;;;65.57;26.83;;;;;;;0.78;96.91;97406.78;5046014;28;20065;-59
2022/02/16 02:07:16;;;;;;;68.45;25.60;;;;;;;0.85;97.09;97404.50;5046573;28;20055;-57
2022/02/16 02:09:43;;;;;;;62.75;22.83;;;;;;;0.26;97.05;97303.59;5046598;28;20255;-57
2022/02/16 02:12:10;;;;;;;45.55;18.08;;;;;;;0.56;95.94;97346.66;5046304;28;20063;-59
2022/02/16 02:14:37;;;;;;;54.50;19.02;;;;;;;0.94;96.02;97397.25;5045821;28;20143;-58
2022/02/16 02:17:04;;;;;;;46.35;18.63;;;;;;;0.89;95.68;97394.59;5045939;28;20080;-58
2022/02/16 02:19:33;;;;;;;41.25;17.40;;;;;;;0.74;95.89;97370.34;5045543;28;20726;-55
2022/02/16 02:22:00;;;;;;;48.25;19.20;;;;;;;0.44;96.46;97321.81;5046062;28;20764;-58
2022/02/16 02:24:27;;;;;;;67.95;24.60;;;;;;;-0.52;95.88;97161.19;5044155;28;20080;-57
2022/02/16 02:26:54;;;;;;;50.97;20.15;;;;;;;0.43;95.43;97309.28;5045977;28;20434;-58
2022/02/16 02:29:20;;;;;;;40.03;18.52;;;;;;;0.91;96.10;97397.84;5046196;28;20446;-58
2022/02/16 02:31:47;;;;;;;37.20;15.68;;;;;;;0.92;95.19;97399.44;5044688;28;20072;-56
2022/02/16 02:34:14;;;;;;;71.95;25.00;;;;;;;0.78;94.80;97375.97;5045782;28;20049;-55
2022/02/16 02:36:41;;;;;;;85.82;28.23;;;;;;;0.51;95.30;97338.56;5045827;28;20079;-58
2022/02/16 02:39:08;;;;;;;57.20;23.20;;;;;;;0.86;95.23;97394.38;5045160;28;20053;-56
2022/02/16 02:41:35;;;;;;;46.95;20.38;;;;;;;0.81;97.04;97389.84;5046004;28;20064;-58
2022/02/16 02:44:01;;;;;;;68.78;24.80;;;;;;;0.59;98.31;97364.31;5044353;28;20056;-56
2022/02/16 02:46:28;;;;;;;37.85;16.45;;;;;;;0.71;99.35;97381.81;5044339;28;20135;-58
2022/02/16 02:48:55;;;;;;;36.83;12.70;;;;;;;0.48;99.09;97347.34;5045831;28;20053;-56
2022/02/16 02:51:22;;;;;;;30.80;12.88;;;;;;;-0.21;99.44;97243.94;5044196;28;20507;-58
2022/02/16 02:53:48;;;;;;;31.60;13.55;;;;;;;0.63;100.00;97381.72;5045637;28;20424;-59
2022/02/16 02:56:15;;;;;;;31.45;14.10;;;;;;;0.22;100.00;97313.47;5044137;28;20087;-58
2022/02/16 02:58:42;;;;;;;31.25;13.07;;;;;;;0.70;100.00;97391.13;5044668;28;20057;-56
2022/02/16 03:01:09;;;;;;;29.35;11.98;;;;;;;0.68;100.00;97387.88;5044216;28;20048;-59
2022/02/16 03:03:36;;;;;;;33.67;13.27;;;;;;;0.61;100.00;97375.75;5045097;28;20052;-55
2022/02/16 03:06:06;;;;;;;35.65;13.18;;;;;;;0.77;100.00;97394.28;5045441;28;21283;-58
2022/02/16 03:08:33;;;;;;;30.42;13.63;;;;;;;0.83;99.18;97393.06;5045655;28;20045;-56
2022/02/16 03:11:00;;;;;;;32.97;13.20;;;;;;;0.80;99.53;97401.84;5044883;28;20159;-58
2022/02/16 03:13:27;;;;;;;41.25;16.60;;;;;;;0.32;100.00;97335.09;5044736;28;20052;-58
2022/02/16 03:15:54;;;;;;;34.50;14.55;;;;;;;0.71;100.00;97452.69;5044869;28;20439;-56
2022/02/16 03:18:21;;;;;;;28.33;12.45;;;;;;;0.61;100.00;97371.13;5044809;28;20045;-59
2022/02/16 03:20:49;;;;;;;29.80;13.65;;;;;;;0.77;99.65;97380.66;5043215;28;20056;-58
2022/02/16 03:23:16;;;;;;;32.45;12.65;;;;;;;0.72;98.17;97361.66;5043230;28;20582;-57
2022/02/16 03:25:43;;;;;;;34.33;13.40;;;;;;;0.82;98.36;97375.09;5045202;28;20053;-56
2022/02/16 03:28:10;;;;;;;34.25;13.80;;;;;;;0.87;98.93;97375.00;5044787;28;20440;-55
2022/02/16 03:30:37;;;;;;;42.10;17.75;;;;;;;0.88;98.41;97382.09;5043091;28;20095;-56
2022/02/16 03:33:24;;;;;;;44.63;18.30;;;;;;;0.80;98.09;97390.13;5044900;28;20057;-56
2022/02/16 03:35:51;;;;;;;45.75;19.15;;;;;;;0.83;98.25;97387.63;5044615;28;20055;-57
2022/02/16 07:23:48;;;;;;;32.08;16.27;;;;;;;4.83;84.45;97371.31;5081372;27;1380194;-60
2022/02/16 07:26:18;;;;;;;38.92;16.95;;;;;;;4.75;81.81;97303.53;5123268;27;20076;-61
2022/02/16 07:28:44;;;;;;;36.67;16.27;;;;;;;5.28;80.64;97367.00;5139146;27;20054;-59
2022/02/16 07:31:11;;;;;;;36.53;18.70;;;;;;;5.14;79.45;97311.50;5122555;27;20059;-57
2022/02/16 07:33:38;;;;;;;36.63;18.77;;;;;;;5.58;79.30;97355.72;5140464;27;20042;-62
2022/02/16 07:36:05;;;;;;;39.85;20.35;;;;;;;5.55;78.89;97322.59;5140474;27;20047;-56
2022/02/16 07:38:33;;;;;;;34.10;17.70;;;;;;;5.97;78.31;97352.63;5122333;27;20576;-60
2022/02/16 07:41:00;;;;;;;40.63;18.40;;;;;;;6.22;78.27;97359.09;5137780;27;20065;-61
2022/02/16 07:43:28;;;;;;;37.95;18.00;;;;;;;6.04;76.37;97319.09;5129709;27;20045;-60
2022/02/16 07:45:55;;;;;;;38.25;18.38;;;;;;;6.04;76.34;97297.09;5139824;27;20047;-60
2022/02/16 07:48:22;;;;;;;34.88;18.10;;;;;;;6.61;74.02;97350.34;5119833;28;20051;-65
2022/02/16 07:50:49;;;;;;;41.28;21.02;;;;;;;6.81;74.13;97352.28;5118875;28;20047;-56
2022/02/16 07:53:16;;;;;;;49.75;22.05;;;;;;;7.04;73.11;97348.00;5115479;27;20051;-61
2022/02/16 07:55:43;;;;;;;51.25;24.50;;;;;;;7.07;73.26;97325.28;5139353;27;20075;-57
2022/02/16 07:58:10;;;;;;;39.78;20.27;;;;;;;7.43;71.31;97350.16;5139578;27;20051;-63
2022/02/16 08:00:37;;;;;;;40.22;19.35;;;;;;;7.57;70.92;97350.63;5121837;27;20054;-56
2022/02/16 08:03:05;;;;;;;37.45;17.75;;;;;;;8.02;70.22;97349.69;5122140;27;20047;-55
2022/02/16 08:05:34;;;;;;;34.90;18.60;;;;;;;8.49;69.12;97342.50;5122235;27;20050;-57
2022/02/16 08:08:01;;;;;;;35.45;18.70;;;;;;;8.40;65.66;97281.13;5140608;27;20054;-55
2022/02/16 08:10:28;;;;;;;39.25;17.98;;;;;;;9.05;65.30;97333.09;5139456;27;20432;-54
2022/02/16 08:12:59;;;;;;;28.33;12.77;;;;;;;8.58;64.85;97340.44;5140378;27;20046;-60
2022/02/16 08:15:29;;;;;;;27.60;13.55;;;;;;;8.08;67.18;97331.78;5134668;27;20516;-60
2022/02/16 08:17:55;;;;;;;33.00;15.27;;;;;;;8.03;69.52;97334.78;5136504;27;20042;-56
2022/02/16 08:20:22;;;;;;;30.67;13.98;;;;;;;7.36;73.88;97314.09;5130292;27;20436;-54
2022/02/16 08:22:49;;;;;;;31.38;15.88;;;;;;;7.11;76.75;97326.19;5138939;27;20061;-54
2022/02/16 08:25:16;;;;;;;31.40;15.10;;;;;;;7.08;77.28;97332.41;5118849;27;20054;-62
2022/02/16 08:27:43;;;;;;;30.55;15.43;;;;;;;7.40;77.40;97316.94;5135810;27;20051;-65
2022/02/16 08:30:11;;;;;;;27.73;14.32;;;;;;;7.98;74.55;97310.19;5125504;27;20051;-57
2022/02/16 08:32:39;;;;;;;25.30;13.52;;;;;;;8.34;72.05;97274.25;5126752;27;20120;-55
2022/02/16 08:35:08;;;;;;;27.92;13.88;;;;;;;8.68;69.17;97284.69;5124268;27;20161;-56
2022/02/16 08:37:37;;;;;;;32.28;15.55;;;;;;;8.26;70.68;97255.88;5107766;27;20055;-62
2022/02/16 08:40:05;;;;;;;24.33;12.38;;;;;;;8.74;70.20;97302.63;5125505;27;20521;-57
2022/02/16 08:42:33;;;;;;;27.67;12.70;;;;;;;9.22;68.49;97294.06;5113163;27;20482;-56
2022/02/16 08:44:59;;;;;;;26.05;12.82;;;;;;;9.67;65.19;97310.22;5126333;27;20043;-60
2022/02/16 08:47:26;;;;;;;23.15;12.63;;;;;;;9.92;64.10;97312.44;5118593;27;20073;-60
2022/02/16 08:49:53;;;;;;;25.67;12.52;;;;;;;10.18;63.28;97315.44;5125191;27;20047;-56
2022/02/16 08:52:20;;;;;;;27.25;14.00;;;;;;;10.38;63.07;97303.25;5125318;27;20040;-58
2022/02/16 08:54:47;;;;;;;24.58;11.63;;;;;;;10.03;59.62;97269.19;5126139;27;20047;-56
2022/02/16 08:57:13;;;;;;;23.88;12.30;;;;;;;9.85;61.12;97290.13;5125514;27;20043;-61
2022/02/16 08:59:41;;;;;;;18.77;10.32;;;;;;;9.81;62.41;97294.78;5106481;27;20716;-59
2022/02/16 09:02:08;;;;;;;23.80;11.68;;;;;;;10.22;60.45;97355.09;5125066;27;20249;-59
2022/02/16 09:04:35;;;;;;;23.60;11.25;;;;;;;10.25;59.57;97301.75;5125729;27;20039;-56
2022/02/16 09:09:47;;;;;;;21.13;10.70;;;;;;;10.18;59.61;97325.72;5125154;27;20058;-60
2022/02/16 09:12:14;;;;;;;22.80;11.75;;;;;;;10.12;61.19;97297.50;5124721;27;20256;-59
2022/02/16 09:14:41;;;;;;;23.63;11.55;;;;;;;9.37;62.87;97268.41;5124934;27;20910;-54
2022/02/16 09:17:07;;;;;;;22.58;11.88;;;;;;;9.86;62.51;97302.81;5123973;27;20047;-60
2022/02/16 09:19:35;;;;;;;23.80;11.23;;;;;;;8.98;63.20;97237.00;5125258;27;20047;-56
2022/02/16 09:22:03;;;;;;;23.05;10.70;;;;;;;9.39;62.85;97277.13;5125098;27;20436;-60
2022/02/16 09:24:30;;;;;;;20.23;10.02;;;;;;;9.43;63.07;97294.63;5116723;27;20517;-58
2022/02/16 09:26:57;;;;;;;22.85;11.40;;;;;;;9.78;61.86;97295.50;5106050;27;20146;-56
2022/02/16 09:29:24;;;;;;;20.92;9.73;;;;;;;9.49;61.22;97192.84;5106114;27;20474;-61
2022/02/16 09:31:52;;;;;;;25.08;11.57;;;;;;;10.28;60.41;97275.31;5124310;27;20431;-56
2022/02/16 09:34:20;;;;;;;22.02;10.90;;;;;;;10.20;60.24;97256.94;5123868;27;20082;-60
2022/02/16 09:36:48;;;;;;;21.27;10.27;;;;;;;10.81;59.46;97265.34;5106480;27;20076;-56
2022/02/16 09:39:15;;;;;;;19.75;11.18;;;;;;;10.40;59.09;97272.41;5124004;27;20058;-61
2022/02/16 09:41:46;;;;;;;23.08;10.98;;;;;;;11.04;58.27;97255.06;5123013;27;20046;-61
2022/02/16 09:44:15;;;;;;;45.00;16.45;;;;;;;11.29;56.79;97248.00;5105797;27;20047;-61
2022/02/16 09:46:42;;;;;;;25.35;11.65;;;;;;;11.33;56.17;97241.38;5123391;27;20627;-58
2022/02/16 09:49:12;;;;;;;22.85;11.65;;;;;;;11.54;55.90;97215.94;5125090;27;20047;-56
2022/02/16 09:51:39;;;;;;;18.42;10.85;;;;;;;11.41;55.67;97167.38;5124126;27;20511;-59
2022/02/16 09:54:06;;;;;;;20.85;10.25;;;;;;;12.07;54.69;97228.66;5124143;27;20093;-55
2022/02/16 09:56:33;;;;;;;19.67;9.30;;;;;;;11.10;55.82;97223.09;5124213;27;20043;-62
2022/02/16 09:59:01;;;;;;;17.27;9.60;;;;;;;10.56;57.00;97220.50;5124617;27;20452;-56
2022/02/16 10:01:27;;;;;;;22.25;11.10;;;;;;;10.65;56.92;97130.47;5103748;27;20051;-61
2022/02/16 10:04:03;;;;;;;24.35;11.88;;;;;;;11.62;55.27;97195.44;5123381;27;20553;-55
2022/02/16 10:06:44;;;;;;;21.10;10.32;;;;;;;11.67;55.68;97184.06;5115831;27;20043;-61
2022/02/16 10:09:35;;;;;;;18.15;10.68;;;;;;;12.19;54.15;97195.09;5123606;27;20047;-65
2022/02/16 10:12:07;;;;;;;18.90;9.85;;;;;;;11.90;53.54;97151.50;5113196;27;20429;-55
2022/02/16 10:14:36;;;;;;;18.67;9.13;;;;;;;12.42;53.12;97173.59;5123813;27;20071;-62
2022/02/16 10:17:27;;;;;;;21.25;8.27;;;;;;;12.46;52.76;97174.41;5122818;27;20046;-56
2022/02/16 10:19:59;;;;;;;17.92;8.25;;;;;;;12.29;52.28;97163.91;5109579;27;20513;-65
2022/02/16 10:22:30;;;;;;;33.90;15.60;;;;;;;12.63;52.22;97167.47;5120498;27;20059;-61
2022/02/16 10:25:16;;;;;;;16.77;9.30;;;;;;;13.03;51.17;97159.97;5104753;27;20061;-55
2022/02/16 10:28:05;;;;;;;13.93;8.45;;;;;;;12.65;50.94;97132.56;5124643;27;20493;-59
2022/02/16 10:30:33;;;;;;;15.15;7.75;;;;;;;13.07;50.47;97168.34;5105899;27;20047;-57
2022/02/16 10:33:53;;;;;;;16.25;8.57;;;;;;;13.35;50.31;97155.47;5124201;27;20051;-58
2022/02/16 10:36:23;;;;;;;16.10;8.73;;;;;;;13.36;49.99;97145.94;5000379;28;20049;-58
2022/02/16 10:38:57;;;;;;;14.90;9.23;;;;;;;13.64;49.58;97142.56;5000764;28;20046;-62
2022/02/16 10:41:30;;;;;;;16.02;8.45;;;;;;;13.02;49.66;97138.91;5078105;27;20047;-63
2022/02/16 10:43:58;;;;;;;20.63;9.48;;;;;;;13.39;49.70;97136.81;5105819;27;20051;-57
2022/02/16 10:46:29;;;;;;;14.68;7.97;;;;;;;12.84;49.30;97112.88;5123677;27;20058;-61
2022/02/16 10:49:16;;;;;;;15.60;7.85;;;;;;;12.87;49.98;97122.44;5123870;27;20526;-61
2022/02/16 10:52:12;;;;;;;13.05;7.50;;;;;;;13.14;49.85;97126.69;5124176;27;20051;-56
2022/02/16 10:54:41;;;;;;;12.95;7.22;;;;;;;13.43;48.47;97101.47;5124408;27;20821;-57
2022/02/16 10:57:07;;;;;;;14.90;7.25;;;;;;;13.59;48.23;97110.31;5123745;27;20053;-55
2022/02/16 10:59:35;;;;;;;11.55;7.13;;;;;;;13.91;47.35;97104.91;5123900;27;20075;-62
2022/02/16 11:02:06;;;;;;;12.55;7.03;;;;;;;13.08;49.19;97048.38;5105637;27;20117;-54
2022/02/16 11:04:35;;;;;;;15.27;8.07;;;;;;;13.22;47.72;97095.75;5124280;27;20429;-61
2022/02/16 11:07:04;;;;;;;12.68;6.28;;;;;;;13.44;47.87;97066.09;5124311;27;20085;-61
2022/02/16 11:09:40;;;;;;;15.77;7.07;;;;;;;10.73;47.43;96654.09;5123929;27;20043;-56
2022/02/16 11:12:08;;;;;;;14.70;7.00;;;;;;;13.10;47.80;97075.81;5105412;27;20066;-55
2022/02/16 11:14:35;;;;;;;15.77;6.82;;;;;;;13.73;47.71;97086.53;5123789;27;20153;-54
2022/02/16 11:17:03;;;;;;;9.55;6.47;;;;;;;13.72;46.28;97034.84;5105385;28;20054;-62
2022/02/16 11:19:37;;;;;;;8.63;5.68;;;;;;;14.43;45.30;97086.88;5123873;28;20554;-62
2022/02/16 11:22:04;;;;;;;16.40;5.72;;;;;;;14.55;45.21;97072.53;5123768;28;20525;-56
2022/02/16 11:24:44;;;;;;;9.45;6.10;;;;;;;14.47;45.22;97098.81;5104953;28;20047;-60
2022/02/16 11:27:23;;;;;;;15.15;6.53;;;;;;;14.18;45.74;97072.03;5121768;28;20062;-55
2022/02/16 11:29:50;;;;;;;9.10;6.22;;;;;;;14.06;46.18;97077.94;5105438;28;20099;-56
2022/02/16 11:32:24;;;;;;;13.40;7.40;;;;;;;14.50;45.47;97064.56;5084367;28;20067;-56
2022/02/16 11:35:27;;;;;;;10.98;6.40;;;;;;;14.99;45.01;97056.25;5079067;28;20095;-56
2022/02/16 11:38:02;;;;;;;9.95;5.78;;;;;;;15.30;44.00;97052.63;5078587;28;20164;-64
2022/02/16 11:40:45;;;;;;;18.75;8.70;;;;;;;15.44;43.39;97024.75;5080107;28;20055;-56
2022/02/16 11:43:14;;;;;;;9.55;5.75;;;;;;;15.21;42.96;97043.88;4887648;28;5001069;-55
2022/02/16 11:45:51;;;;;;;9.52;6.13;;;;;;;14.59;44.32;97034.34;5076860;28;20059;-55
2022/02/16 11:48:48;;;;;;;15.73;7.13;;;;;;;14.49;44.38;97044.28;5068070;28;20477;-56
2022/02/16 11:51:42;;;;;;;14.25;6.60;;;;;;;15.17;43.54;97031.94;5073874;28;20059;-56
2022/02/16 11:54:42;;;;;;;;;;;;;;;15.11;43.28;97028.75;5076322;28;20052;-55
2022/02/16 11:57:30;;;;;;;10.32;5.60;;;;;;;14.46;44.88;97025.53;5072646;28;20404;-59
2022/02/16 12:00:23;;;;;;;12.38;5.47;;;;;;;15.09;44.20;97019.19;5076947;28;20048;-68
2022/02/16 12:03:02;;;;;;;13.27;6.93;;;;;;;15.56;43.72;97010.34;5069066;28;20619;-67
2022/02/16 12:05:56;;;;;;;14.93;7.68;;;;;;;16.16;42.38;96999.72;5077290;27;20772;-59
2022/02/16 12:08:35;;;;;;;8.90;5.47;;;;;;;15.71;42.24;97002.72;5088274;27;20109;-62
2022/02/16 12:11:23;;;;;;;8.02;5.43;;;;;;;15.61;43.04;96990.41;5076784;28;20175;-59
2022/02/16 12:14:12;;;;;;;8.65;5.13;;;;;;;16.12;41.70;96993.34;5073099;28;20051;-60
2022/02/16 12:16:42;;;;;;;11.02;5.97;;;;;;;15.80;42.91;96970.38;5074477;28;20533;-59
2022/02/16 12:19:13;;;;;;;9.35;6.20;;;;;;;15.87;41.80;96931.22;5071341;28;20497;-62
2022/02/16 12:21:42;;;;;;;11.13;5.93;;;;;;;16.34;41.70;96989.22;5079779;28;20075;-61
2022/02/16 12:24:14;;;;;;;9.30;5.85;;;;;;;15.73;42.58;96981.56;5072219;28;20413;-61
2022/02/16 12:26:58;;;;;;;9.73;6.07;;;;;;;15.22;43.70;96984.09;5084018;28;20060;-63
2022/02/16 12:29:34;;;;;;;13.90;5.78;;;;;;;15.00;43.77;96971.38;5075306;28;20072;-58
2022/02/16 12:32:14;;;;;;;12.73;7.00;;;;;;;15.41;43.20;96969.72;5077341;28;20052;-58
2022/02/16 12:34:43;;;;;;;17.85;7.47;;;;;;;13.19;43.29;96612.56;5073796;28;20049;-61
2022/02/16 12:37:15;;;;;;;12.48;6.60;;;;;;;13.44;43.01;96649.53;5073482;28;20056;-59
2022/02/16 12:39:52;;;;;;;9.43;5.50;;;;;;;15.84;42.68;96965.56;5076021;28;20052;-57
2022/02/16 12:42:19;;;;;;;11.38;6.07;;;;;;;16.12;42.85;96948.63;5074065;28;20048;-57
2022/02/16 12:44:49;;;;;;;12.35;6.72;;;;;;;16.48;41.84;96961.22;5073918;28;20070;-62
2022/02/16 12:47:15;;;;;;;16.48;5.90;;;;;;;16.26;42.00;96953.34;5070781;28;20048;-58
2022/02/16 12:49:44;;;;;;;9.45;6.22;;;;;;;16.21;41.99;96929.41;5073965;28;20076;-58
2022/02/16 12:52:12;;;;;;;14.55;6.20;;;;;;;15.66;41.75;96841.19;5087663;28;20055;-59
2022/02/16 12:54:39;;;;;;;9.00;5.43;;;;;;;15.97;42.56;96924.78;5073087;28;20052;-61
2022/02/16 12:57:09;;;;;;;12.80;6.40;;;;;;;16.03;42.85;96956.66;5072596;28;20071;-59
2022/02/16 13:02:33;;;;;;;11.98;6.28;;;;;;;15.90;42.75;96947.16;5073134;28;20058;-59
2022/02/16 13:05:06;;;;;;;12.20;6.15;;;;;;;15.80;43.19;96936.84;5074075;28;20510;-60
2022/02/16 13:07:35;;;;;;;10.10;5.93;;;;;;;15.47;43.26;96889.94;5082365;28;20048;-59
2022/02/16 13:10:05;;;;;;;11.32;6.30;;;;;;;15.44;43.40;96940.19;5075620;28;20048;-66
2022/02/16 13:12:37;;;;;;;15.60;7.00;;;;;;;15.57;43.42;96942.13;5073067;28;20074;-61
2022/02/16 13:15:06;;;;;;;9.43;6.63;;;;;;;15.65;43.63;96940.91;5073564;28;20540;-61
2022/02/16 13:17:34;;;;;;;10.90;6.28;;;;;;;15.07;44.82;96943.47;5072410;28;20052;-60
2022/02/16 13:20:34;;;;;;;10.32;6.75;;;;;;;15.28;44.59;96932.25;5076652;28;20062;-59
2022/02/16 13:23:06;;;;;;;14.77;7.45;;;;;;;14.95;45.48;96929.94;5075561;28;20060;-59
2022/02/16 13:25:36;;;;;;;15.93;7.90;;;;;;;14.23;47.12;96932.31;5075736;28;20054;-65
2022/02/16 13:28:11;;;;;;;14.32;8.02;;;;;;;14.44;47.00;96932.38;5071050;28;20502;-58
2022/02/16 13:30:39;;;;;;;17.08;8.68;;;;;;;14.22;47.64;96930.75;5074902;28;20052;-56
2022/02/16 13:33:16;;;;;;;17.20;9.10;;;;;;;14.04;47.92;96914.00;5075521;28;20131;-57
2022/02/16 13:35:46;;;;;;;16.55;8.57;;;;;;;13.96;47.98;96867.06;5070873;28;20048;-62
2022/02/16 13:38:21;;;;;;;15.82;8.70;;;;;;;13.94;48.80;96914.78;5073963;28;20048;-56
2022/02/16 13:40:52;;;;;;;17.27;8.77;;;;;;;14.05;49.25;96915.59;5075780;28;20518;-58
2022/02/16 13:43:53;;;;;;;13.95;7.72;;;;;;;14.63;47.91;96912.44;5075124;28;20047;-59
2022/02/16 13:46:23;;;;;;;;;;;;;;;14.54;47.93;96909.28;5075473;28;20117;-60
2022/02/16 13:48:50;;;;;;;18.15;7.53;;;;;;;14.00;48.41;96906.84;5077341;28;19993;-61
2022/02/16 13:51:20;;;;;;;17.08;7.90;;;;;;;14.03;48.47;96890.13;5073926;28;20043;-61
2022/02/16 13:53:48;;;;;;;15.18;8.88;;;;;;;14.39;48.04;96902.09;5072752;28;20453;-57
2022/02/16 13:56:17;;;;;;;15.60;9.50;;;;;;;14.56;48.07;96890.16;5076739;28;20506;-57
2022/02/16 13:58:44;;;;;;;14.05;7.50;;;;;;;14.02;47.72;96826.47;5076461;28;20048;-58
2022/02/16 14:01:15;;;;;;;17.75;9.93;;;;;;;14.59;47.72;96894.94;5072925;28;20058;-56
2022/02/16 14:04:01;;;;;;;16.10;8.18;;;;;;;14.72;47.07;96887.75;5075478;28;20123;-63
2022/02/16 14:06:28;;;;;;;23.88;12.90;;;;;;;14.74;47.22;96885.34;5073260;28;20071;-59
2022/02/16 14:08:55;;;;;;;18.63;10.52;;;;;;;14.69;48.06;96888.53;5075387;28;20068;-59
2022/02/16 14:11:23;;;;;;;19.25;10.25;;;;;;;14.53;47.67;96840.78;5073561;28;20044;-59
2022/02/16 14:13:50;;;;;;;19.15;10.00;;;;;;;14.88;47.92;96879.75;5073975;28;20127;-62
2022/02/16 14:16:20;;;;;;;20.55;11.00;;;;;;;14.64;48.81;96877.78;5073884;28;20055;-58
2022/02/16 14:19:22;;;;;;;24.63;10.70;;;;;;;14.13;48.83;96827.28;5077781;28;20054;-60
2022/02/16 14:21:35;;;;;;;19.88;11.00;;;;;;;14.50;48.81;96861.09;5076069;28;20154;-58
2022/02/16 14:24:02;;;;;;;18.63;10.93;;;;;;;14.03;49.75;96833.63;5073254;28;20082;-61
2022/02/16 14:26:29;;;;;;;20.60;10.70;;;;;;;14.00;50.39;96859.50;5074271;28;20663;-60
2022/02/16 14:28:56;;;;;;;23.80;13.32;;;;;;;13.59;51.44;96870.19;5081088;28;20052;-58
2022/02/16 14:31:22;;;;;;;33.25;15.95;;;;;;;13.92;51.44;96872.63;5071370;28;20059;-61
2022/02/16 14:34:09;;;;;;;28.05;15.48;;;;;;;13.68;52.26;96848.31;5069634;28;20125;-61
2022/02/16 14:36:36;;;;;;;37.97;18.33;;;;;;;11.56;52.58;96536.72;5073007;28;21132;-57
2022/02/16 14:39:07;;;;;;;34.97;17.48;;;;;;;13.49;53.37;96863.38;5078357;28;20048;-61
2022/02/16 14:41:35;;;;;;;36.22;16.77;;;;;;;13.06;54.05;96825.50;5069394;28;20044;-61
2022/02/16 14:44:03;;;;;;;32.92;17.00;;;;;;;13.37;54.57;96872.09;5071004;28;20044;-58
2022/02/16 14:46:31;;;;;;;29.58;14.65;;;;;;;13.29;54.65;96895.50;5073885;28;20054;-66
2022/02/16 14:48:58;;;;;;;29.23;15.05;;;;;;;13.13;55.68;96872.81;5075868;28;20052;-59
2022/02/16 14:51:27;;;;;;;27.20;13.75;;;;;;;12.12;56.73;96789.63;5066064;28;20109;-58
2022/02/16 14:53:55;;;;;;;36.00;14.18;;;;;;;12.25;58.62;96845.66;5073009;28;20040;-62
2022/02/16 14:56:23;;;;;;;24.92;12.88;;;;;;;11.20;59.21;96679.09;5069131;28;20044;-61
2022/02/16 14:58:50;;;;;;;28.88;14.05;;;;;;;12.05;60.35;96831.22;5071922;28;20128;-57
2022/02/16 15:01:18;;;;;;;26.77;14.75;;;;;;;11.99;61.29;96843.88;5070797;28;20040;-59
2022/02/16 15:03:45;;;;;;;27.33;15.23;;;;;;;11.90;61.63;96851.72;5073959;28;20040;-57
2022/02/16 15:06:12;;;;;;;33.20;15.60;;;;;;;11.90;62.28;96868.38;5070886;28;20460;-66
2022/02/16 15:08:39;;;;;;;33.42;15.50;;;;;;;11.69;62.83;96851.53;5072915;28;20068;-64
2022/02/16 15:11:06;;;;;;;30.50;15.38;;;;;;;11.69;63.09;96855.09;5071654;28;20055;-60
2022/02/16 15:13:32;;;;;;;37.30;16.10;;;;;;;10.75;63.60;96734.88;5070340;28;20055;-61
2022/02/16 15:15:59;;;;;;;33.85;15.95;;;;;;;11.19;64.72;96850.16;5073315;28;20036;-64
2022/02/16 15:18:34;;;;;;;36.33;16.13;;;;;;;11.28;65.58;96874.84;5062206;28;20125;-59
2022/02/16 15:21:01;;;;;;;31.10;16.10;;;;;;;10.93;66.60;96852.22;5064580;28;20052;-59
2022/02/16 15:23:31;;;;;;;31.05;15.32;;;;;;;11.01;66.82;96884.41;5073635;28;20058;-61
2022/02/16 15:26:05;;;;;;;38.00;16.55;;;;;;;10.65;67.16;96864.53;5074234;28;20119;-65
2022/02/16 15:28:33;;;;;;;36.08;16.20;;;;;;;11.02;66.68;96895.09;5078507;28;20074;-62
2022/02/16 15:31:01;;;;;;;36.55;17.80;;;;;;;11.03;66.64;96879.28;5074565;28;20052;-60